createdAt,value
2017-12-20T00:01:30.512Z,25.50
2017-12-20T00:03:57.947Z,26.53
2017-12-20T00:06:26.169Z,24.45
2017-12-20T00:08:53.620Z,26.20
2017-12-20T00:11:21.067Z,25.33
2017-12-20T00:13:49.273Z,26.35
2017-12-20T00:16:16.715Z,27.77
2017-12-20T00:18:44.935Z,26.67
2017-12-20T00:21:12.380Z,26.77
2017-12-20T00:23:40.593Z,26.83
2017-12-20T00:26:08.056Z,24.73
2017-12-20T00:28:35.498Z,27.10
2017-12-20T00:31:03.696Z,26.00
2017-12-20T00:33:31.150Z,26.92
2017-12-20T00:35:59.371Z,26.10
2017-12-20T00:38:26.813Z,25.08
2017-12-20T00:40:55.018Z,26.23
2017-12-20T00:43:22.478Z,26.80
2017-12-20T00:45:49.929Z,27.85
2017-12-20T00:48:18.144Z,21.48
2017-12-20T00:50:45.581Z,25.60
2017-12-20T00:53:13.802Z,25.17
2017-12-20T00:55:41.254Z,27.17
2017-12-20T00:58:08.714Z,22.80
2017-12-20T01:00:36.908Z,25.55
2017-12-20T01:03:04.372Z,26.80
2017-12-20T01:05:32.592Z,30.15
2017-12-20T01:08:00.050Z,28.55
2017-12-20T01:10:27.488Z,28.50
2017-12-20T01:12:55.704Z,30.45
2017-12-20T01:15:23.159Z,30.33
2017-12-20T01:17:50.605Z,31.12
2017-12-20T01:20:18.818Z,30.62
2017-12-20T01:22:46.263Z,26.25
2017-12-20T01:25:14.483Z,30.05
2017-12-20T01:27:41.934Z,29.70
2017-12-20T01:30:09.400Z,29.60
2017-12-20T01:32:36.844Z,28.73
2017-12-20T01:35:04.303Z,31.67
2017-12-20T01:37:31.760Z,30.83
2017-12-20T01:39:59.228Z,27.58
2017-12-20T01:42:27.434Z,26.90
2017-12-20T01:44:54.888Z,25.15
2017-12-20T01:47:22.333Z,25.95
2017-12-20T01:49:49.792Z,26.20
2017-12-20T01:52:17.248Z,25.23
2017-12-20T01:54:44.705Z,24.05
2017-12-20T01:57:12.144Z,25.53
2017-12-20T01:59:39.600Z,26.05
2017-12-20T02:02:07.053Z,23.67
2017-12-20T02:04:34.517Z,23.38
2017-12-20T02:07:01.969Z,25.67
2017-12-20T02:09:29.428Z,26.95
2017-12-20T02:11:56.892Z,25.05
2017-12-20T02:14:24.341Z,26.25
2017-12-20T02:16:52.552Z,25.60
2017-12-20T02:19:19.990Z,23.85
2017-12-20T02:21:48.203Z,25.12
2017-12-20T02:24:15.648Z,25.42
2017-12-20T02:26:43.859Z,23.83
2017-12-20T02:29:11.304Z,24.97
2017-12-20T02:31:39.516Z,24.63
2017-12-20T02:34:06.973Z,23.58
2017-12-20T02:36:34.431Z,21.45
2017-12-20T02:39:06.124Z,22.52
2017-12-20T02:41:33.587Z,22.45
2017-12-20T02:44:01.046Z,25.45
2017-12-20T02:46:28.501Z,22.00
2017-12-20T02:48:55.997Z,21.80
2017-12-20T02:51:23.411Z,23.65
2017-12-20T02:53:50.856Z,22.95
2017-12-20T02:56:18.320Z,22.25
2017-12-20T02:58:45.747Z,21.42
2017-12-20T03:01:13.979Z,22.60
2017-12-20T03:03:42.207Z,21.45
2017-12-20T03:06:09.663Z,21.95
2017-12-20T03:08:37.103Z,23.60
2017-12-20T03:11:04.560Z,23.40
2017-12-20T03:13:31.998Z,23.33
2017-12-20T03:16:00.219Z,21.45
2017-12-20T03:18:27.668Z,20.75
2017-12-20T03:20:55.143Z,22.40
2017-12-20T03:23:22.591Z,22.77
2017-12-20T03:25:50.793Z,22.37
2017-12-20T03:28:18.247Z,19.70
2017-12-20T03:30:45.709Z,22.27
2017-12-20T03:33:13.945Z,21.03
2017-12-20T03:35:41.404Z,20.48
2017-12-20T03:38:08.863Z,21.48
2017-12-20T03:40:36.302Z,20.05
2017-12-20T03:43:04.515Z,18.23
2017-12-20T03:45:31.979Z,21.33
2017-12-20T03:47:59.427Z,21.87
2017-12-20T03:50:27.635Z,22.30
2017-12-20T03:52:55.090Z,21.15
2017-12-20T03:55:22.532Z,21.77
2017-12-20T03:57:50.745Z,22.45
2017-12-20T04:00:18.178Z,21.00
2017-12-20T04:02:46.394Z,20.48
2017-12-20T04:05:13.840Z,21.12
2017-12-20T04:07:42.052Z,20.52
2017-12-20T04:10:09.494Z,20.00
2017-12-20T04:12:37.703Z,19.87
2017-12-20T04:15:05.149Z,20.37
2017-12-20T04:17:33.373Z,21.50
2017-12-20T04:20:00.827Z,20.77
2017-12-20T04:22:28.317Z,21.02
2017-12-20T04:24:55.746Z,19.73
2017-12-20T04:27:23.187Z,20.40
2017-12-20T04:29:50.639Z,20.05
2017-12-20T04:32:18.091Z,19.33
2017-12-20T04:34:45.545Z,18.37
2017-12-20T04:37:13.001Z,19.87
2017-12-20T04:39:40.466Z,25.95
2017-12-20T04:42:07.895Z,21.80
2017-12-20T04:44:35.353Z,21.05
2017-12-20T04:47:02.790Z,20.12
2017-12-20T04:49:30.243Z,20.92
2017-12-20T04:51:57.690Z,18.73
2017-12-20T04:54:25.921Z,16.90
2017-12-20T04:56:53.376Z,18.23
2017-12-20T04:59:20.845Z,15.70
2017-12-20T05:01:48.295Z,16.45
2017-12-20T05:04:15.747Z,18.30
2017-12-20T05:06:43.953Z,18.27
2017-12-20T05:09:11.424Z,16.55
2017-12-20T05:11:38.866Z,16.58
2017-12-20T05:14:07.079Z,15.27
2017-12-20T05:16:34.519Z,16.65
2017-12-20T05:19:02.745Z,16.17
2017-12-20T05:21:30.200Z,16.25
2017-12-20T05:23:57.684Z,16.70
2017-12-20T05:26:25.158Z,16.50
2017-12-20T05:28:52.593Z,18.00
2017-12-20T05:31:20.055Z,20.58
2017-12-20T05:33:48.267Z,17.90
2017-12-20T05:36:15.716Z,16.10
2017-12-20T05:38:43.944Z,14.40
2017-12-20T05:41:11.399Z,17.13
2017-12-20T05:43:38.856Z,16.85
2017-12-20T05:46:06.312Z,17.73
2017-12-20T05:48:34.520Z,14.50
2017-12-20T05:51:01.993Z,13.95
2017-12-20T05:53:29.437Z,12.55
2017-12-20T05:55:56.889Z,13.27
2017-12-20T05:58:25.086Z,13.00
2017-12-20T06:00:53.309Z,13.23
2017-12-20T06:03:20.763Z,11.93
2017-12-20T06:05:48.195Z,13.23
2017-12-20T06:08:16.414Z,13.73
2017-12-20T06:10:43.874Z,11.75
2017-12-20T06:13:11.313Z,13.60
2017-12-20T06:15:38.760Z,13.87
2017-12-20T06:18:06.223Z,13.40
2017-12-20T06:20:33.678Z,12.85
2017-12-20T06:23:01.128Z,13.67
2017-12-20T06:25:28.633Z,13.15
2017-12-20T06:27:56.082Z,13.70
2017-12-20T06:30:23.532Z,15.18
2017-12-20T06:32:50.988Z,13.57
2017-12-20T06:35:18.432Z,14.70
2017-12-20T06:37:46.658Z,15.15
2017-12-20T06:40:14.106Z,13.00
2017-12-20T06:42:41.551Z,13.75
2017-12-20T06:45:08.996Z,20.83
2017-12-20T06:47:36.467Z,22.40
2017-12-20T06:50:03.901Z,20.60
2017-12-20T06:52:31.679Z,19.10
2017-12-20T06:54:59.127Z,17.12
2017-12-20T06:57:27.325Z,17.93
2017-12-20T06:59:54.766Z,16.98
2017-12-20T07:02:22.984Z,13.25
2017-12-20T07:04:50.432Z,12.05
2017-12-20T07:07:18.005Z,12.00
2017-12-20T07:09:45.594Z,13.50
2017-12-20T07:12:13.044Z,12.23
2017-12-20T07:14:40.505Z,13.07
2017-12-20T07:17:08.720Z,14.30
2017-12-20T07:19:36.197Z,12.40
2017-12-20T07:22:03.642Z,12.13
2017-12-20T07:24:31.134Z,12.45
2017-12-20T07:26:58.572Z,13.20
2017-12-20T07:29:26.020Z,13.02
2017-12-20T07:31:54.237Z,15.23
2017-12-20T07:34:21.680Z,13.73
2017-12-20T07:36:49.896Z,12.60
2017-12-20T07:39:17.350Z,13.30
2017-12-20T07:41:44.789Z,12.07
2017-12-20T07:44:12.234Z,13.05
2017-12-20T07:46:39.686Z,13.68
2017-12-20T07:49:07.482Z,12.82
2017-12-20T07:51:34.928Z,11.63
2017-12-20T07:54:02.379Z,11.10
2017-12-20T07:56:30.637Z,10.50
2017-12-20T07:58:58.081Z,7.40
2017-12-20T08:01:25.532Z,10.20
2017-12-20T08:03:52.981Z,8.43
2017-12-20T08:06:20.424Z,8.17
2017-12-20T08:08:48.641Z,8.80
2017-12-20T08:11:16.077Z,9.43
2017-12-20T08:13:44.288Z,13.30
2017-12-20T08:16:11.739Z,17.10
2017-12-20T08:18:39.957Z,13.43
2017-12-20T08:21:07.397Z,8.90
2017-12-20T08:23:34.857Z,11.07
2017-12-20T08:26:03.059Z,9.43
2017-12-20T08:28:30.495Z,8.50
2017-12-20T08:30:58.689Z,9.80
2017-12-20T08:33:26.912Z,7.90
2017-12-20T08:35:54.340Z,8.87
2017-12-20T08:38:22.541Z,9.10
2017-12-20T08:40:49.986Z,8.03
2017-12-20T08:43:17.449Z,10.15
2017-12-20T08:45:44.906Z,11.60
2017-12-20T08:48:12.358Z,11.70
2017-12-20T08:50:40.585Z,10.55
2017-12-20T08:53:08.809Z,10.80
2017-12-20T08:55:36.253Z,11.80
2017-12-20T08:58:04.460Z,8.87
2017-12-20T09:00:31.905Z,8.60
2017-12-20T09:03:00.112Z,6.97
2017-12-20T09:05:27.551Z,7.00
2017-12-20T09:07:54.989Z,7.10
2017-12-20T09:10:22.432Z,5.80
2017-12-20T09:12:49.862Z,6.67
2017-12-20T09:15:18.065Z,6.13
2017-12-20T09:17:45.496Z,6.40
2017-12-20T09:20:12.940Z,7.10
2017-12-20T09:22:40.380Z,6.93
2017-12-20T09:25:07.826Z,7.47
2017-12-20T09:27:36.024Z,6.97
2017-12-20T09:30:03.482Z,6.33
2017-12-20T09:32:31.700Z,7.00
2017-12-20T09:34:59.143Z,8.60
2017-12-20T09:37:26.595Z,6.53
2017-12-20T09:39:54.784Z,7.27
2017-12-20T09:42:23.006Z,8.03
2017-12-20T09:44:50.437Z,7.90
2017-12-20T09:47:18.641Z,7.97
2017-12-20T09:49:46.078Z,8.20
2017-12-20T09:52:13.522Z,8.70
2017-12-20T09:54:40.954Z,7.90
2017-12-20T09:57:08.392Z,8.80
2017-12-20T09:59:36.602Z,6.83
2017-12-20T10:02:04.047Z,7.40
2017-12-20T10:04:32.250Z,6.90
2017-12-20T10:06:59.698Z,7.30
2017-12-20T10:09:27.894Z,7.03
2017-12-20T10:11:56.105Z,7.80
2017-12-20T10:14:23.542Z,8.17
2017-12-20T10:16:51.749Z,8.00
2017-12-20T10:19:19.173Z,6.40
2017-12-20T10:21:46.611Z,8.17
2017-12-20T10:24:14.043Z,8.50
2017-12-20T10:26:41.518Z,6.93
2017-12-20T10:29:08.911Z,7.07
2017-12-20T10:31:36.362Z,7.63
2017-12-20T10:34:03.795Z,7.50
2017-12-20T10:36:31.240Z,7.23
2017-12-20T10:38:58.671Z,8.00
2017-12-20T10:41:26.113Z,7.27
2017-12-20T10:43:54.332Z,7.83
2017-12-20T10:46:21.768Z,8.00
2017-12-20T10:48:49.969Z,7.23
2017-12-20T10:51:17.394Z,6.73
2017-12-20T10:53:44.846Z,7.77
2017-12-20T10:56:12.286Z,25.03
2017-12-20T10:58:39.719Z,6.90
2017-12-20T11:01:07.926Z,7.57
2017-12-20T11:03:35.361Z,7.07
2017-12-20T11:06:02.793Z,5.90
2017-12-20T11:08:30.232Z,7.00
2017-12-20T11:10:57.676Z,7.60
2017-12-20T11:13:25.884Z,7.33
2017-12-20T11:15:53.314Z,6.70
2017-12-20T11:18:20.763Z,6.27
2017-12-20T11:20:48.201Z,5.80
2017-12-20T11:23:15.656Z,6.53
2017-12-20T11:25:43.083Z,7.43
2017-12-20T11:28:10.522Z,6.43
2017-12-20T11:30:37.957Z,7.00
2017-12-20T11:33:05.406Z,6.97
2017-12-20T11:35:33.602Z,7.90
2017-12-20T11:38:01.857Z,6.90
2017-12-20T11:40:29.301Z,7.77
2017-12-20T11:42:56.730Z,8.47
2017-12-20T11:45:24.174Z,6.47
2017-12-20T11:47:51.596Z,6.90
2017-12-20T11:50:19.040Z,7.97
2017-12-20T11:52:46.477Z,9.23
2017-12-20T11:55:13.919Z,7.37
2017-12-20T11:57:41.343Z,7.23
2017-12-20T12:00:08.793Z,6.27
2017-12-20T12:02:36.993Z,6.70
2017-12-20T12:05:05.183Z,6.77
2017-12-20T12:07:32.616Z,6.83
2017-12-20T12:10:00.053Z,6.63
2017-12-20T12:12:27.484Z,7.10
2017-12-20T12:14:54.938Z,8.83
2017-12-20T12:17:23.135Z,16.90
2017-12-20T12:19:50.581Z,7.87
2017-12-20T12:22:18.018Z,6.83
2017-12-20T12:24:45.469Z,8.60
2017-12-20T12:27:12.908Z,6.83
2017-12-20T12:29:41.662Z,6.60
2017-12-20T12:32:09.087Z,7.23
2017-12-20T12:34:36.529Z,6.53
2017-12-20T12:37:04.725Z,7.50
2017-12-20T12:39:32.963Z,6.13
2017-12-20T12:42:00.395Z,7.53
2017-12-20T12:44:27.825Z,6.73
2017-12-20T12:46:55.256Z,7.30
2017-12-20T12:49:22.691Z,8.77
2017-12-20T12:51:50.140Z,6.90
2017-12-20T12:54:18.342Z,8.60
2017-12-20T12:56:46.542Z,9.13
2017-12-20T12:59:13.981Z,9.77
2017-12-20T13:01:42.187Z,6.93
2017-12-20T13:04:09.623Z,8.30
2017-12-20T13:06:37.054Z,7.80
2017-12-20T13:09:04.491Z,8.03
2017-12-20T13:11:32.692Z,6.77
2017-12-20T13:14:00.130Z,7.23
2017-12-20T13:16:28.331Z,7.90
2017-12-20T13:18:55.772Z,7.90
2017-12-20T13:21:23.200Z,7.80
2017-12-20T13:23:50.648Z,8.13
2017-12-20T13:26:18.100Z,8.63
2017-12-20T13:28:46.296Z,8.20
2017-12-20T13:31:13.742Z,7.37
2017-12-20T13:33:41.935Z,7.63
2017-12-20T13:36:10.152Z,7.93
2017-12-20T13:38:37.580Z,7.97
2017-12-20T13:41:05.791Z,7.97
2017-12-20T13:43:33.229Z,6.37
2017-12-20T13:46:00.660Z,6.80
2017-12-20T13:48:28.098Z,7.30
2017-12-20T13:50:55.530Z,7.60
2017-12-20T13:53:22.982Z,6.83
2017-12-20T13:55:50.413Z,7.03
2017-12-20T13:58:17.861Z,7.30
2017-12-20T14:00:45.297Z,7.97
2017-12-20T14:03:12.790Z,7.57
2017-12-20T14:05:40.981Z,8.20
2017-12-20T14:08:09.195Z,8.37
2017-12-20T14:10:36.632Z,5.73
2017-12-20T14:13:04.847Z,6.93
2017-12-20T14:15:32.290Z,6.50
2017-12-20T14:18:00.489Z,6.40
2017-12-20T14:20:27.924Z,6.50
2017-12-20T14:22:55.362Z,6.93
2017-12-20T14:25:22.803Z,7.50
2017-12-20T14:27:50.249Z,7.30
2017-12-20T14:30:17.684Z,7.80
2017-12-20T14:32:45.143Z,7.47
2017-12-20T14:35:12.582Z,9.70
2017-12-20T14:37:40.049Z,11.40
2017-12-20T14:40:07.483Z,9.00
2017-12-20T14:42:35.685Z,8.07
2017-12-20T14:45:03.115Z,7.43
2017-12-20T14:47:30.556Z,6.47
2017-12-20T14:49:57.988Z,5.70
2017-12-20T14:52:25.428Z,6.90
2017-12-20T14:54:53.634Z,6.17
2017-12-20T14:57:21.065Z,6.50
2017-12-20T14:59:48.517Z,6.00
2017-12-20T15:02:15.963Z,10.03
2017-12-20T15:04:43.412Z,14.27
2017-12-20T15:07:10.848Z,8.00
2017-12-20T15:09:38.303Z,5.63
2017-12-20T15:12:05.744Z,7.50
2017-12-20T15:14:33.183Z,7.33
2017-12-20T15:17:00.620Z,7.67
2017-12-20T15:19:28.067Z,6.30
2017-12-20T15:21:55.506Z,7.33
2017-12-20T15:24:22.952Z,8.10
2017-12-20T15:26:50.395Z,8.13
2017-12-20T15:29:17.836Z,7.43
2017-12-20T15:31:45.268Z,11.33
2017-12-20T15:34:12.725Z,11.43
2017-12-20T15:36:40.158Z,8.30
2017-12-20T15:39:07.617Z,6.87
2017-12-20T15:41:35.051Z,7.63
2017-12-20T15:44:02.495Z,7.60
2017-12-20T15:46:30.698Z,7.90
2017-12-20T15:48:58.133Z,9.03
2017-12-20T15:51:26.347Z,18.17
2017-12-20T15:53:53.788Z,10.83
2017-12-20T15:56:22.002Z,8.00
2017-12-20T15:58:49.435Z,8.07
2017-12-20T16:01:16.870Z,7.23
2017-12-20T16:03:44.312Z,6.80
2017-12-20T16:06:12.529Z,7.93
2017-12-20T16:08:39.956Z,7.40
2017-12-20T16:11:07.404Z,6.90
2017-12-20T16:13:35.601Z,7.50
2017-12-20T16:16:03.813Z,9.20
2017-12-20T16:18:31.246Z,8.57
2017-12-20T16:20:59.447Z,6.90
2017-12-20T16:23:26.879Z,6.80
2017-12-20T16:25:54.331Z,6.27
2017-12-20T16:28:21.769Z,7.10
2017-12-20T16:30:49.216Z,7.90
2017-12-20T16:33:17.426Z,6.70
2017-12-20T16:35:44.877Z,7.67
2017-12-20T16:38:12.311Z,10.67
2017-12-20T16:40:39.763Z,11.87
2017-12-20T16:43:07.205Z,11.00
2017-12-20T16:45:34.644Z,8.33
2017-12-20T16:48:02.845Z,7.70
2017-12-20T16:50:30.291Z,8.80
2017-12-20T16:52:58.504Z,9.50
2017-12-20T16:55:25.978Z,8.40
2017-12-20T16:57:53.404Z,6.87
2017-12-20T17:00:21.609Z,7.40
2017-12-20T17:02:49.804Z,7.83
2017-12-20T17:05:17.240Z,8.73
2017-12-20T17:07:44.677Z,8.73
2017-12-20T17:10:12.115Z,9.50
2017-12-20T17:12:39.589Z,7.70
2017-12-20T17:15:07.059Z,8.00
2017-12-20T17:17:34.485Z,8.17
2017-12-20T17:20:02.681Z,7.80
2017-12-20T17:22:30.888Z,7.70
2017-12-20T17:24:58.314Z,7.73
2017-12-20T17:27:25.765Z,9.00
2017-12-20T17:29:53.201Z,8.30
2017-12-20T17:32:20.656Z,8.60
2017-12-20T17:34:48.083Z,10.50
2017-12-20T17:37:15.571Z,8.50
2017-12-20T17:39:42.992Z,9.70
2017-12-20T17:42:10.431Z,12.00
2017-12-20T17:44:37.906Z,11.50
2017-12-20T17:47:05.335Z,14.50
2017-12-20T17:49:32.767Z,12.47
2017-12-20T17:52:00.261Z,11.80
2017-12-20T17:54:27.685Z,11.30
2017-12-20T17:56:55.116Z,11.63
2017-12-20T17:59:23.327Z,11.43
2017-12-20T18:01:50.755Z,12.00
2017-12-20T18:04:18.190Z,11.80
2017-12-20T18:06:45.661Z,11.20
2017-12-20T18:09:13.102Z,11.20
2017-12-20T18:11:40.535Z,12.10
2017-12-20T18:14:08.036Z,11.43
2017-12-20T18:16:36.226Z,10.80
2017-12-20T18:19:03.683Z,11.73
2017-12-20T18:21:31.933Z,13.20
2017-12-20T18:23:59.361Z,14.90
2017-12-20T18:26:26.801Z,10.57
2017-12-20T18:28:55.021Z,11.10
2017-12-20T18:31:22.516Z,11.37
2017-12-20T18:33:49.948Z,11.37
2017-12-20T18:36:17.460Z,10.47
2017-12-20T18:38:44.948Z,10.90
2017-12-20T18:41:12.377Z,11.53
2017-12-20T18:43:39.820Z,12.67
2017-12-20T18:46:07.311Z,11.80
2017-12-20T18:48:34.743Z,11.07
2017-12-20T18:51:02.185Z,11.10
2017-12-20T18:53:29.621Z,10.53
2017-12-20T18:55:57.070Z,11.80
2017-12-20T18:58:24.562Z,12.03
2017-12-20T19:00:52.001Z,11.27
2017-12-20T19:03:19.444Z,12.37
2017-12-20T19:05:47.702Z,12.37
2017-12-20T19:08:15.951Z,12.93
2017-12-20T19:10:43.440Z,17.00
2017-12-20T19:13:10.875Z,14.80
2017-12-20T19:15:38.376Z,14.17
2017-12-20T19:18:05.807Z,18.77
2017-12-20T19:20:33.288Z,12.70
2017-12-20T19:23:00.713Z,14.00
2017-12-20T19:25:28.211Z,12.97
2017-12-20T19:27:56.460Z,13.53
2017-12-20T19:30:23.904Z,12.77
2017-12-20T19:32:51.382Z,12.53
2017-12-20T19:35:18.817Z,12.20
2017-12-20T19:37:46.297Z,16.03
2017-12-20T19:40:13.736Z,14.60
2017-12-20T19:42:41.993Z,15.17
2017-12-20T19:45:09.430Z,14.90
2017-12-20T19:47:36.923Z,14.13
2017-12-20T19:50:04.365Z,15.00
2017-12-20T19:52:31.860Z,12.60
2017-12-20T19:54:59.289Z,13.40
2017-12-20T19:57:26.795Z,11.10
2017-12-20T19:59:54.275Z,11.90
2017-12-20T20:02:22.518Z,12.00
2017-12-20T20:04:49.996Z,14.73
2017-12-20T20:07:17.491Z,12.10
2017-12-20T20:09:44.974Z,12.53
2017-12-20T20:12:12.466Z,11.90
2017-12-20T20:14:40.720Z,12.90
2017-12-20T20:17:08.192Z,12.40
2017-12-20T20:19:35.667Z,13.07
2017-12-20T20:22:03.162Z,12.87
2017-12-20T20:24:31.414Z,14.70
2017-12-20T20:26:58.908Z,13.67
2017-12-20T20:29:26.376Z,12.00
2017-12-20T20:31:53.872Z,14.33
2017-12-20T20:34:22.060Z,15.63
2017-12-20T20:36:49.565Z,14.07
2017-12-20T20:39:17.044Z,16.20
2017-12-20T20:41:44.536Z,14.90
2017-12-20T20:44:12.015Z,15.07
2017-12-20T20:46:39.490Z,14.47
2017-12-20T20:49:07.742Z,13.20
2017-12-20T20:51:35.231Z,14.73
2017-12-20T20:54:02.727Z,14.77
2017-12-20T20:56:30.976Z,13.80
2017-12-20T20:58:58.473Z,14.43
2017-12-20T21:01:26.724Z,14.13
2017-12-20T21:03:54.214Z,16.00
2017-12-20T21:06:21.703Z,16.90
2017-12-20T21:08:49.206Z,16.40
2017-12-20T21:11:16.684Z,16.30
2017-12-20T21:13:44.168Z,17.93
2017-12-20T21:16:11.657Z,17.63
2017-12-20T21:18:39.152Z,21.07
2017-12-20T21:21:07.397Z,23.80
2017-12-20T21:23:34.913Z,20.63
2017-12-20T21:26:03.150Z,25.10
2017-12-20T21:28:31.399Z,23.03
2017-12-20T21:30:58.879Z,19.93
2017-12-20T21:33:26.374Z,17.53
2017-12-20T21:35:53.869Z,16.57
2017-12-20T21:38:21.360Z,16.23
2017-12-20T21:40:49.552Z,13.67
2017-12-20T21:43:17.060Z,15.00
2017-12-20T21:45:44.490Z,14.50
2017-12-20T21:48:12.028Z,14.87
2017-12-20T21:50:39.509Z,14.83
2017-12-20T21:53:06.970Z,11.63
2017-12-20T21:55:34.465Z,13.13
2017-12-20T21:58:02.707Z,14.57
2017-12-20T22:00:30.149Z,14.83
2017-12-20T22:02:57.645Z,13.90
2017-12-20T22:05:25.132Z,12.23
2017-12-20T22:07:52.605Z,13.73
2017-12-20T22:10:20.097Z,15.33
2017-12-20T22:12:48.332Z,14.90
2017-12-20T22:15:15.816Z,14.30
2017-12-20T22:17:43.240Z,13.00
2017-12-20T22:20:10.695Z,13.83
2017-12-20T22:22:38.183Z,12.33
2017-12-20T22:25:05.660Z,13.90
2017-12-20T22:27:33.077Z,17.77
2017-12-20T22:30:01.349Z,16.23
2017-12-20T22:32:28.823Z,17.37
2017-12-20T22:34:56.305Z,16.00
2017-12-20T22:37:24.553Z,16.57
2017-12-20T22:39:52.800Z,14.80
2017-12-20T22:42:21.035Z,13.20
2017-12-20T22:44:48.532Z,15.60
2017-12-20T22:47:16.015Z,13.63
2017-12-20T22:49:44.303Z,15.10
2017-12-20T22:52:11.701Z,13.80
2017-12-20T22:54:39.194Z,12.90
2017-12-20T22:57:06.671Z,14.30
2017-12-20T22:59:34.160Z,14.60
2017-12-20T23:02:01.639Z,15.90
2017-12-20T23:04:29.881Z,15.03
2017-12-20T23:06:57.369Z,14.07
2017-12-20T23:09:24.832Z,15.80
2017-12-20T23:11:52.309Z,15.07
2017-12-20T23:14:19.781Z,13.57
2017-12-20T23:16:47.254Z,16.20
2017-12-20T23:19:14.726Z,18.90
2017-12-20T23:21:42.162Z,15.20
2017-12-20T23:24:09.599Z,18.53
2017-12-20T23:26:37.094Z,17.60
2017-12-20T23:29:04.520Z,16.23
2017-12-20T23:31:32.775Z,19.40
2017-12-20T23:34:00.201Z,19.97
2017-12-20T23:36:27.684Z,15.37
2017-12-20T23:38:55.163Z,17.80
2017-12-20T23:41:22.614Z,13.70
2017-12-20T23:43:50.058Z,15.30
2017-12-20T23:46:17.549Z,16.20
2017-12-20T23:48:44.988Z,16.10
2017-12-20T23:51:12.436Z,15.63
2017-12-20T23:53:39.886Z,13.80
2017-12-20T23:56:07.331Z,15.40
2017-12-20T23:58:34.775Z,13.10
